sensor_id;sensor_type;location;lat;lon;timestamp;temperature;humidity
10051;DHT22;5065;46.942;7.432;2023-09-19T00:00:22;18.40;99.90
10051;DHT22;5065;46.942;7.432;2023-09-19T00:02:54;18.30;99.90
10051;DHT22;5065;46.942;7.432;2023-09-19T00:05:25;18.30;99.90
10051;DHT22;5065;46.942;7.432;2023-09-19T00:07:54;18.30;99.90
10051;DHT22;5065;46.942;7.432;2023-09-19T00:10:24;18.30;99.90
10051;DHT22;5065;46.942;7.432;2023-09-19T00:12:53;18.30;99.90
10051;DHT22;5065;46.942;7.432;2023-09-19T00:15:23;18.30;99.90
10051;DHT22;5065;46.942;7.432;2023-09-19T00:17:51;18.30;99.90
10051;DHT22;5065;46.942;7.432;2023-09-19T00:20:19;18.20;99.90
10051;DHT22;5065;46.942;7.432;2023-09-19T00:22:49;18.20;99.90
10051;DHT22;5065;46.942;7.432;2023-09-19T00:25:16;18.20;99.90
10051;DHT22;5065;46.942;7.432;2023-09-19T00:27:44;18.20;99.90
10051;DHT22;5065;46.942;7.432;2023-09-19T00:30:13;18.20;99.90
10051;DHT22;5065;46.942;7.432;2023-09-19T00:32:47;18.20;99.90
10051;DHT22;5065;46.942;7.432;2023-09-19T00:35:15;18.20;99.90
10051;DHT22;5065;46.942;7.432;2023-09-19T00:37:42;18.20;99.90
10051;DHT22;5065;46.942;7.432;2023-09-19T00:40:10;18.20;99.90
10051;DHT22;5065;46.942;7.432;2023-09-19T00:42:41;18.20;99.90
10051;DHT22;5065;46.942;7.432;2023-09-19T00:45:10;18.20;99.90
10051;DHT22;5065;46.942;7.432;2023-09-19T00:47:38;18.20;99.90
10051;DHT22;5065;46.942;7.432;2023-09-19T00:50:08;18.20;99.90
10051;DHT22;5065;46.942;7.432;2023-09-19T00:52:38;18.20;99.90
10051;DHT22;5065;46.942;7.432;2023-09-19T00:55:07;18.20;99.90
10051;DHT22;5065;46.942;7.432;2023-09-19T00:57:36;18.10;99.90
10051;DHT22;5065;46.942;7.432;2023-09-19T01:00:05;18.20;99.90
10051;DHT22;5065;46.942;7.432;2023-09-19T01:02:37;18.10;99.90
10051;DHT22;5065;46.942;7.432;2023-09-19T01:05:06;18.20;99.90
10051;DHT22;5065;46.942;7.432;2023-09-19T01:07:33;18.20;99.90
10051;DHT22;5065;46.942;7.432;2023-09-19T01:10:02;18.10;99.90
10051;DHT22;5065;46.942;7.432;2023-09-19T01:12:36;18.20;99.90
10051;DHT22;5065;46.942;7.432;2023-09-19T01:15:15;18.20;99.90
10051;DHT22;5065;46.942;7.432;2023-09-19T01:17:48;18.20;99.90
10051;DHT22;5065;46.942;7.432;2023-09-19T01:20:31;18.10;99.90
10051;DHT22;5065;46.942;7.432;2023-09-19T01:23:09;18.10;99.90
10051;DHT22;5065;46.942;7.432;2023-09-19T01:26:04;18.10;99.90
10051;DHT22;5065;46.942;7.432;2023-09-19T01:28:43;18.10;99.90
10051;DHT22;5065;46.942;7.432;2023-09-19T01:31:15;18.10;99.90
10051;DHT22;5065;46.942;7.432;2023-09-19T01:33:56;18.10;99.90
10051;DHT22;5065;46.942;7.432;2023-09-19T01:36:26;18.10;99.90
10051;DHT22;5065;46.942;7.432;2023-09-19T01:38:54;18.10;99.90
10051;DHT22;5065;46.942;7.432;2023-09-19T01:48:19;18.10;99.90
10051;DHT22;5065;46.942;7.432;2023-09-19T01:50:52;18.10;99.90
10051;DHT22;5065;46.942;7.432;2023-09-19T01:53:25;18.10;99.90
10051;DHT22;5065;46.942;7.432;2023-09-19T01:55:54;18.10;99.90
10051;DHT22;5065;46.942;7.432;2023-09-19T01:58:27;18.10;99.90
10051;DHT22;5065;46.942;7.432;2023-09-19T02:00:55;18.10;99.90
10051;DHT22;5065;46.942;7.432;2023-09-19T02:03:25;18.10;99.90
10051;DHT22;5065;46.942;7.432;2023-09-19T02:05:54;18.00;99.90
10051;DHT22;5065;46.942;7.432;2023-09-19T02:08:23;18.00;99.90
10051;DHT22;5065;46.942;7.432;2023-09-19T02:10:50;18.10;99.90
10051;DHT22;5065;46.942;7.432;2023-09-19T02:13:19;18.00;99.90
10051;DHT22;5065;46.942;7.432;2023-09-19T02:15:47;18.00;99.90
10051;DHT22;5065;46.942;7.432;2023-09-19T02:18:14;18.00;99.90
10051;DHT22;5065;46.942;7.432;2023-09-19T02:20:45;18.00;99.90
10051;DHT22;5065;46.942;7.432;2023-09-19T02:23:14;18.00;99.90
10051;DHT22;5065;46.942;7.432;2023-09-19T02:25:41;18.00;99.90
10051;DHT22;5065;46.942;7.432;2023-09-19T02:28:08;18.10;99.90
10051;DHT22;5065;46.942;7.432;2023-09-19T02:30:36;18.00;99.90
10051;DHT22;5065;46.942;7.432;2023-09-19T02:33:03;18.00;99.90
10051;DHT22;5065;46.942;7.432;2023-09-19T02:35:31;18.00;99.90
10051;DHT22;5065;46.942;7.432;2023-09-19T02:38:02;18.00;99.90
10051;DHT22;5065;46.942;7.432;2023-09-19T02:40:31;18.00;99.90
10051;DHT22;5065;46.942;7.432;2023-09-19T02:43:01;18.00;99.90
10051;DHT22;5065;46.942;7.432;2023-09-19T02:45:29;18.00;99.90
10051;DHT22;5065;46.942;7.432;2023-09-19T02:47:57;18.00;99.90
10051;DHT22;5065;46.942;7.432;2023-09-19T02:50:24;18.00;99.90
10051;DHT22;5065;46.942;7.432;2023-09-19T02:52:51;18.00;99.90
10051;DHT22;5065;46.942;7.432;2023-09-19T02:55:20;18.00;99.90
10051;DHT22;5065;46.942;7.432;2023-09-19T02:57:48;18.00;99.90
10051;DHT22;5065;46.942;7.432;2023-09-19T03:00:16;18.00;99.90
10051;DHT22;5065;46.942;7.432;2023-09-19T03:02:47;18.00;99.90
10051;DHT22;5065;46.942;7.432;2023-09-19T03:05:15;18.00;99.90
10051;DHT22;5065;46.942;7.432;2023-09-19T03:07:43;18.00;99.90
10051;DHT22;5065;46.942;7.432;2023-09-19T03:10:11;18.00;99.90
10051;DHT22;5065;46.942;7.432;2023-09-19T03:12:41;17.90;99.90
10051;DHT22;5065;46.942;7.432;2023-09-19T03:15:09;17.90;99.90
10051;DHT22;5065;46.942;7.432;2023-09-19T03:17:36;17.90;99.90
10051;DHT22;5065;46.942;7.432;2023-09-19T03:20:04;17.80;99.90
10051;DHT22;5065;46.942;7.432;2023-09-19T03:22:38;17.90;99.90
10051;DHT22;5065;46.942;7.432;2023-09-19T03:25:06;17.80;99.90
10051;DHT22;5065;46.942;7.432;2023-09-19T03:27:34;17.80;99.90
10051;DHT22;5065;46.942;7.432;2023-09-19T03:30:04;17.80;99.90
10051;DHT22;5065;46.942;7.432;2023-09-19T03:32:34;17.80;99.90
10051;DHT22;5065;46.942;7.432;2023-09-19T03:35:01;17.90;99.90
10051;DHT22;5065;46.942;7.432;2023-09-19T03:37:31;17.80;99.90
10051;DHT22;5065;46.942;7.432;2023-09-19T03:39:58;17.80;99.90
10051;DHT22;5065;46.942;7.432;2023-09-19T03:42:30;17.80;99.90
10051;DHT22;5065;46.942;7.432;2023-09-19T03:44:57;17.80;99.90
10051;DHT22;5065;46.942;7.432;2023-09-19T03:47:27;17.80;99.90
10051;DHT22;5065;46.942;7.432;2023-09-19T03:49:54;17.70;99.90
10051;DHT22;5065;46.942;7.432;2023-09-19T03:52:21;17.70;99.90
10051;DHT22;5065;46.942;7.432;2023-09-19T03:54:48;17.70;99.90
10051;DHT22;5065;46.942;7.432;2023-09-19T03:57:15;17.80;99.90
10051;DHT22;5065;46.942;7.432;2023-09-19T03:59:46;17.80;99.90
10051;DHT22;5065;46.942;7.432;2023-09-19T04:02:13;17.80;99.90
10051;DHT22;5065;46.942;7.432;2023-09-19T04:04:49;17.80;99.90
10051;DHT22;5065;46.942;7.432;2023-09-19T04:07:16;17.90;99.90
10051;DHT22;5065;46.942;7.432;2023-09-19T04:09:44;17.90;99.90
10051;DHT22;5065;46.942;7.432;2023-09-19T04:12:12;17.90;99.90
10051;DHT22;5065;46.942;7.432;2023-09-19T04:14:42;17.90;99.90
10051;DHT22;5065;46.942;7.432;2023-09-19T04:17:09;17.90;99.90
10051;DHT22;5065;46.942;7.432;2023-09-19T04:19:37;17.80;99.90
10051;DHT22;5065;46.942;7.432;2023-09-19T04:22:05;17.90;99.90
10051;DHT22;5065;46.942;7.432;2023-09-19T04:24:33;18.00;99.90
10051;DHT22;5065;46.942;7.432;2023-09-19T04:27:00;17.90;99.90
10051;DHT22;5065;46.942;7.432;2023-09-19T04:29:27;17.70;99.90
10051;DHT22;5065;46.942;7.432;2023-09-19T04:31:55;17.80;99.90
10051;DHT22;5065;46.942;7.432;2023-09-19T04:34:22;17.80;99.90
10051;DHT22;5065;46.942;7.432;2023-09-19T04:36:50;17.80;99.90
10051;DHT22;5065;46.942;7.432;2023-09-19T04:39:19;17.80;99.90
10051;DHT22;5065;46.942;7.432;2023-09-19T04:41:46;17.80;99.90
10051;DHT22;5065;46.942;7.432;2023-09-19T04:44:14;17.80;99.90
10051;DHT22;5065;46.942;7.432;2023-09-19T04:46:41;17.80;99.90
10051;DHT22;5065;46.942;7.432;2023-09-19T04:49:08;17.80;99.90
10051;DHT22;5065;46.942;7.432;2023-09-19T04:51:35;17.80;99.90
10051;DHT22;5065;46.942;7.432;2023-09-19T04:54:02;17.90;99.90
10051;DHT22;5065;46.942;7.432;2023-09-19T04:56:32;17.80;99.90
10051;DHT22;5065;46.942;7.432;2023-09-19T04:58:59;17.80;99.90
10051;DHT22;5065;46.942;7.432;2023-09-19T05:01:26;17.80;99.90
10051;DHT22;5065;46.942;7.432;2023-09-19T05:03:53;17.80;99.90
10051;DHT22;5065;46.942;7.432;2023-09-19T05:06:21;17.80;99.90
10051;DHT22;5065;46.942;7.432;2023-09-19T05:08:48;17.70;99.90
10051;DHT22;5065;46.942;7.432;2023-09-19T05:11:17;17.80;99.90
10051;DHT22;5065;46.942;7.432;2023-09-19T05:13:46;17.80;99.90
10051;DHT22;5065;46.942;7.432;2023-09-19T05:16:13;17.80;99.90
10051;DHT22;5065;46.942;7.432;2023-09-19T05:18:41;17.90;99.90
10051;DHT22;5065;46.942;7.432;2023-09-19T05:21:10;17.80;99.90
10051;DHT22;5065;46.942;7.432;2023-09-19T05:23:37;17.80;99.90
10051;DHT22;5065;46.942;7.432;2023-09-19T05:26:05;17.90;99.90
10051;DHT22;5065;46.942;7.432;2023-09-19T05:28:32;17.80;99.90
10051;DHT22;5065;46.942;7.432;2023-09-19T05:31:01;17.80;99.90
10051;DHT22;5065;46.942;7.432;2023-09-19T05:33:29;17.80;99.90
10051;DHT22;5065;46.942;7.432;2023-09-19T05:35:56;17.80;99.90
10051;DHT22;5065;46.942;7.432;2023-09-19T05:38:23;17.80;99.90
10051;DHT22;5065;46.942;7.432;2023-09-19T05:40:52;17.70;99.90
10051;DHT22;5065;46.942;7.432;2023-09-19T05:43:19;17.80;99.90
10051;DHT22;5065;46.942;7.432;2023-09-19T05:45:46;17.70;99.90
10051;DHT22;5065;46.942;7.432;2023-09-19T05:48:21;17.70;99.90
10051;DHT22;5065;46.942;7.432;2023-09-19T05:50:49;17.70;99.90
10051;DHT22;5065;46.942;7.432;2023-09-19T05:53:16;17.80;99.90
10051;DHT22;5065;46.942;7.432;2023-09-19T05:55:44;17.70;99.90
10051;DHT22;5065;46.942;7.432;2023-09-19T05:58:11;17.70;99.90
10051;DHT22;5065;46.942;7.432;2023-09-19T06:00:39;17.70;99.90
10051;DHT22;5065;46.942;7.432;2023-09-19T06:03:08;17.70;99.90
10051;DHT22;5065;46.942;7.432;2023-09-19T06:05:37;17.70;99.90
10051;DHT22;5065;46.942;7.432;2023-09-19T06:08:07;17.70;99.90
10051;DHT22;5065;46.942;7.432;2023-09-19T06:10:35;17.70;99.90
10051;DHT22;5065;46.942;7.432;2023-09-19T06:13:02;17.70;99.90
10051;DHT22;5065;46.942;7.432;2023-09-19T06:15:32;17.80;99.90
10051;DHT22;5065;46.942;7.432;2023-09-19T06:18:02;17.80;99.90
10051;DHT22;5065;46.942;7.432;2023-09-19T06:20:30;17.80;99.90
10051;DHT22;5065;46.942;7.432;2023-09-19T06:23:03;17.80;99.90
10051;DHT22;5065;46.942;7.432;2023-09-19T06:25:36;17.80;99.90
10051;DHT22;5065;46.942;7.432;2023-09-19T06:28:05;17.80;99.90
10051;DHT22;5065;46.942;7.432;2023-09-19T06:30:38;17.80;99.90
10051;DHT22;5065;46.942;7.432;2023-09-19T06:33:09;17.80;99.90
10051;DHT22;5065;46.942;7.432;2023-09-19T06:35:38;17.90;99.90
10051;DHT22;5065;46.942;7.432;2023-09-19T06:38:08;17.90;99.90
10051;DHT22;5065;46.942;7.432;2023-09-19T06:40:37;17.90;99.90
10051;DHT22;5065;46.942;7.432;2023-09-19T06:43:04;18.00;99.90
10051;DHT22;5065;46.942;7.432;2023-09-19T06:45:32;18.00;99.90
10051;DHT22;5065;46.942;7.432;2023-09-19T06:47:59;18.00;99.90
10051;DHT22;5065;46.942;7.432;2023-09-19T06:50:28;18.00;99.90
10051;DHT22;5065;46.942;7.432;2023-09-19T06:52:59;18.00;99.90
10051;DHT22;5065;46.942;7.432;2023-09-19T06:55:27;18.00;99.90
10051;DHT22;5065;46.942;7.432;2023-09-19T06:57:56;18.00;99.90
10051;DHT22;5065;46.942;7.432;2023-09-19T07:00:25;18.10;99.90
10051;DHT22;5065;46.942;7.432;2023-09-19T07:02:57;18.10;99.90
10051;DHT22;5065;46.942;7.432;2023-09-19T07:05:27;18.20;99.90
10051;DHT22;5065;46.942;7.432;2023-09-19T07:07:54;18.20;99.90
10051;DHT22;5065;46.942;7.432;2023-09-19T07:10:22;18.30;99.90
10051;DHT22;5065;46.942;7.432;2023-09-19T07:12:56;18.30;99.90
10051;DHT22;5065;46.942;7.432;2023-09-19T07:15:25;18.30;99.90
10051;DHT22;5065;46.942;7.432;2023-09-19T07:17:52;18.40;99.90
10051;DHT22;5065;46.942;7.432;2023-09-19T07:20:20;18.30;99.90
10051;DHT22;5065;46.942;7.432;2023-09-19T07:22:48;18.40;99.90
10051;DHT22;5065;46.942;7.432;2023-09-19T07:25:16;18.40;99.90
10051;DHT22;5065;46.942;7.432;2023-09-19T07:27:43;18.40;99.90
10051;DHT22;5065;46.942;7.432;2023-09-19T07:30:13;18.40;99.90
10051;DHT22;5065;46.942;7.432;2023-09-19T07:32:42;18.40;99.90
10051;DHT22;5065;46.942;7.432;2023-09-19T07:35:09;18.50;99.90
10051;DHT22;5065;46.942;7.432;2023-09-19T07:37:38;18.50;99.90
10051;DHT22;5065;46.942;7.432;2023-09-19T07:40:06;18.50;99.90
10051;DHT22;5065;46.942;7.432;2023-09-19T07:42:35;18.60;99.90
10051;DHT22;5065;46.942;7.432;2023-09-19T07:45:05;18.60;99.90
10051;DHT22;5065;46.942;7.432;2023-09-19T07:47:34;18.60;99.90
10051;DHT22;5065;46.942;7.432;2023-09-19T07:50:01;18.60;99.90
10051;DHT22;5065;46.942;7.432;2023-09-19T07:52:29;18.60;99.90
10051;DHT22;5065;46.942;7.432;2023-09-19T07:54:57;18.60;99.90
10051;DHT22;5065;46.942;7.432;2023-09-19T07:57:27;18.60;99.90
10051;DHT22;5065;46.942;7.432;2023-09-19T07:59:55;18.60;99.90
10051;DHT22;5065;46.942;7.432;2023-09-19T08:02:23;18.60;99.90
10051;DHT22;5065;46.942;7.432;2023-09-19T08:04:51;18.60;99.90
10051;DHT22;5065;46.942;7.432;2023-09-19T08:07:18;18.60;99.90
10051;DHT22;5065;46.942;7.432;2023-09-19T08:09:46;18.60;99.90
10051;DHT22;5065;46.942;7.432;2023-09-19T08:12:16;18.60;99.90
10051;DHT22;5065;46.942;7.432;2023-09-19T08:14:50;18.70;99.90
10051;DHT22;5065;46.942;7.432;2023-09-19T08:17:17;18.80;99.90
10051;DHT22;5065;46.942;7.432;2023-09-19T08:19:46;18.80;99.90
10051;DHT22;5065;46.942;7.432;2023-09-19T08:22:16;18.90;99.90
10051;DHT22;5065;46.942;7.432;2023-09-19T08:24:43;19.00;99.90
10051;DHT22;5065;46.942;7.432;2023-09-19T08:27:10;19.00;99.90
10051;DHT22;5065;46.942;7.432;2023-09-19T08:29:38;19.10;99.90
10051;DHT22;5065;46.942;7.432;2023-09-19T08:32:05;19.20;99.90
10051;DHT22;5065;46.942;7.432;2023-09-19T08:34:32;19.40;99.90
10051;DHT22;5065;46.942;7.432;2023-09-19T08:37:01;19.40;99.90
10051;DHT22;5065;46.942;7.432;2023-09-19T08:39:29;19.50;99.90
10051;DHT22;5065;46.942;7.432;2023-09-19T08:42:00;19.50;99.90
10051;DHT22;5065;46.942;7.432;2023-09-19T08:44:28;19.70;99.90
10051;DHT22;5065;46.942;7.432;2023-09-19T08:47:00;19.70;99.90
10051;DHT22;5065;46.942;7.432;2023-09-19T08:49:51;19.80;99.90
10051;DHT22;5065;46.942;7.432;2023-09-19T08:52:25;19.70;99.90
10051;DHT22;5065;46.942;7.432;2023-09-19T08:54:59;19.80;99.90
10051;DHT22;5065;46.942;7.432;2023-09-19T08:57:33;19.80;99.90
10051;DHT22;5065;46.942;7.432;2023-09-19T09:00:08;19.80;99.90
10051;DHT22;5065;46.942;7.432;2023-09-19T09:02:38;19.80;99.90
10051;DHT22;5065;46.942;7.432;2023-09-19T09:05:08;19.90;99.90
10051;DHT22;5065;46.942;7.432;2023-09-19T09:07:36;19.80;99.90
10051;DHT22;5065;46.942;7.432;2023-09-19T09:10:07;19.90;99.90
10051;DHT22;5065;46.942;7.432;2023-09-19T09:12:35;19.90;99.90
10051;DHT22;5065;46.942;7.432;2023-09-19T09:15:06;19.90;99.90
10051;DHT22;5065;46.942;7.432;2023-09-19T09:17:34;19.90;99.90
10051;DHT22;5065;46.942;7.432;2023-09-19T09:20:01;20.20;99.90
10051;DHT22;5065;46.942;7.432;2023-09-19T09:22:30;20.30;99.90
10051;DHT22;5065;46.942;7.432;2023-09-19T09:24:58;20.10;99.90
10051;DHT22;5065;46.942;7.432;2023-09-19T09:27:31;20.20;99.90
10051;DHT22;5065;46.942;7.432;2023-09-19T09:29:58;20.30;99.90
10051;DHT22;5065;46.942;7.432;2023-09-19T09:32:26;20.40;99.90
10051;DHT22;5065;46.942;7.432;2023-09-19T09:34:55;20.40;99.90
10051;DHT22;5065;46.942;7.432;2023-09-19T09:37:23;20.50;99.90
10051;DHT22;5065;46.942;7.432;2023-09-19T09:39:53;20.60;99.90
10051;DHT22;5065;46.942;7.432;2023-09-19T09:42:33;20.70;99.90
10051;DHT22;5065;46.942;7.432;2023-09-19T09:45:15;20.80;99.90
10051;DHT22;5065;46.942;7.432;2023-09-19T09:47:44;21.00;99.90
10051;DHT22;5065;46.942;7.432;2023-09-19T09:50:30;21.10;99.90
10051;DHT22;5065;46.942;7.432;2023-09-19T09:53:23;21.20;99.90
10051;DHT22;5065;46.942;7.432;2023-09-19T09:56:01;21.20;99.90
10051;DHT22;5065;46.942;7.432;2023-09-19T09:58:33;21.40;99.90
10051;DHT22;5065;46.942;7.432;2023-09-19T10:01:03;21.60;99.90
10051;DHT22;5065;46.942;7.432;2023-09-19T10:03:38;21.70;99.90
10051;DHT22;5065;46.942;7.432;2023-09-19T10:06:07;21.80;99.90
10051;DHT22;5065;46.942;7.432;2023-09-19T10:09:04;21.80;99.90
10051;DHT22;5065;46.942;7.432;2023-09-19T10:11:42;22.00;99.90
10051;DHT22;5065;46.942;7.432;2023-09-19T10:14:17;22.00;99.90
10051;DHT22;5065;46.942;7.432;2023-09-19T10:16:53;22.00;99.90
10051;DHT22;5065;46.942;7.432;2023-09-19T10:19:30;22.10;99.90
10051;DHT22;5065;46.942;7.432;2023-09-19T10:22:01;22.10;99.90
10051;DHT22;5065;46.942;7.432;2023-09-19T10:24:30;22.20;99.90
10051;DHT22;5065;46.942;7.432;2023-09-19T10:27:01;22.20;99.90
10051;DHT22;5065;46.942;7.432;2023-09-19T10:29:32;22.20;99.90
10051;DHT22;5065;46.942;7.432;2023-09-19T10:32:03;22.20;99.90
10051;DHT22;5065;46.942;7.432;2023-09-19T10:34:35;22.10;99.90
10051;DHT22;5065;46.942;7.432;2023-09-19T10:37:04;22.10;99.90
10051;DHT22;5065;46.942;7.432;2023-09-19T10:39:36;22.00;99.90
10051;DHT22;5065;46.942;7.432;2023-09-19T10:42:06;22.00;99.90
10051;DHT22;5065;46.942;7.432;2023-09-19T10:44:40;22.00;99.90
10051;DHT22;5065;46.942;7.432;2023-09-19T10:47:09;21.80;99.90
10051;DHT22;5065;46.942;7.432;2023-09-19T10:49:43;21.80;99.90
10051;DHT22;5065;46.942;7.432;2023-09-19T10:52:13;21.70;99.90
10051;DHT22;5065;46.942;7.432;2023-09-19T10:54:47;21.70;99.90
10051;DHT22;5065;46.942;7.432;2023-09-19T10:57:20;21.60;99.90
10051;DHT22;5065;46.942;7.432;2023-09-19T11:00:07;21.50;99.90
10051;DHT22;5065;46.942;7.432;2023-09-19T11:03:16;21.50;99.90
10051;DHT22;5065;46.942;7.432;2023-09-19T11:06:10;21.60;99.90
10051;DHT22;5065;46.942;7.432;2023-09-19T11:08:52;21.70;99.90
10051;DHT22;5065;46.942;7.432;2023-09-19T11:12:07;21.90;99.90
10051;DHT22;5065;46.942;7.432;2023-09-19T11:14:54;22.10;99.90
10051;DHT22;5065;46.942;7.432;2023-09-19T11:17:43;22.20;99.90
10051;DHT22;5065;46.942;7.432;2023-09-19T11:20:25;22.30;99.90
10051;DHT22;5065;46.942;7.432;2023-09-19T11:23:21;22.40;99.90
10051;DHT22;5065;46.942;7.432;2023-09-19T11:25:56;22.40;99.90
10051;DHT22;5065;46.942;7.432;2023-09-19T11:28:30;22.40;99.90
10051;DHT22;5065;46.942;7.432;2023-09-19T11:30:57;22.40;99.90
10051;DHT22;5065;46.942;7.432;2023-09-19T11:33:28;22.50;99.90
10051;DHT22;5065;46.942;7.432;2023-09-19T11:36:04;22.50;99.90
10051;DHT22;5065;46.942;7.432;2023-09-19T11:38:59;22.50;99.90
10051;DHT22;5065;46.942;7.432;2023-09-19T11:41:38;22.60;99.90
10051;DHT22;5065;46.942;7.432;2023-09-19T11:44:32;22.60;99.90
10051;DHT22;5065;46.942;7.432;2023-09-19T11:47:01;22.70;99.90
10051;DHT22;5065;46.942;7.432;2023-09-19T11:49:31;22.70;99.90
10051;DHT22;5065;46.942;7.432;2023-09-19T11:52:00;22.80;99.90
10051;DHT22;5065;46.942;7.432;2023-09-19T11:54:31;22.80;99.90
10051;DHT22;5065;46.942;7.432;2023-09-19T11:56:59;22.80;99.90
10051;DHT22;5065;46.942;7.432;2023-09-19T11:59:27;22.80;99.90
10051;DHT22;5065;46.942;7.432;2023-09-19T12:01:56;22.80;99.90
10051;DHT22;5065;46.942;7.432;2023-09-19T12:04:36;22.80;99.90
10051;DHT22;5065;46.942;7.432;2023-09-19T12:07:08;22.80;99.90
10051;DHT22;5065;46.942;7.432;2023-09-19T12:09:42;22.80;99.90
10051;DHT22;5065;46.942;7.432;2023-09-19T12:12:10;22.80;99.90
10051;DHT22;5065;46.942;7.432;2023-09-19T12:14:41;22.90;99.90
10051;DHT22;5065;46.942;7.432;2023-09-19T12:17:09;22.80;99.90
10051;DHT22;5065;46.942;7.432;2023-09-19T12:19:49;22.80;99.90
10051;DHT22;5065;46.942;7.432;2023-09-19T12:22:16;22.80;99.90
10051;DHT22;5065;46.942;7.432;2023-09-19T12:24:45;22.90;99.90
10051;DHT22;5065;46.942;7.432;2023-09-19T12:27:12;22.90;99.90
10051;DHT22;5065;46.942;7.432;2023-09-19T12:29:43;22.90;99.90
10051;DHT22;5065;46.942;7.432;2023-09-19T12:32:11;22.90;99.90
10051;DHT22;5065;46.942;7.432;2023-09-19T12:34:40;22.90;99.90
10051;DHT22;5065;46.942;7.432;2023-09-19T12:37:10;22.90;99.90
10051;DHT22;5065;46.942;7.432;2023-09-19T12:39:44;22.90;99.90
10051;DHT22;5065;46.942;7.432;2023-09-19T12:42:15;22.90;99.90
10051;DHT22;5065;46.942;7.432;2023-09-19T12:44:44;22.90;99.90
10051;DHT22;5065;46.942;7.432;2023-09-19T12:47:13;22.90;99.90
10051;DHT22;5065;46.942;7.432;2023-09-19T12:50:08;23.00;99.90
10051;DHT22;5065;46.942;7.432;2023-09-19T12:52:41;23.00;99.90
10051;DHT22;5065;46.942;7.432;2023-09-19T12:55:20;23.00;99.90
10051;DHT22;5065;46.942;7.432;2023-09-19T12:58:08;23.10;99.90
10051;DHT22;5065;46.942;7.432;2023-09-19T13:00:39;23.10;99.90
10051;DHT22;5065;46.942;7.432;2023-09-19T13:03:14;23.10;99.90
10051;DHT22;5065;46.942;7.432;2023-09-19T13:05:49;23.10;99.90
10051;DHT22;5065;46.942;7.432;2023-09-19T13:08:18;23.10;99.90
10051;DHT22;5065;46.942;7.432;2023-09-19T13:11:06;23.20;99.90
10051;DHT22;5065;46.942;7.432;2023-09-19T13:13:36;23.30;99.90
10051;DHT22;5065;46.942;7.432;2023-09-19T13:16:04;23.30;99.90
10051;DHT22;5065;46.942;7.432;2023-09-19T13:18:45;23.30;99.90
10051;DHT22;5065;46.942;7.432;2023-09-19T13:21:14;23.20;99.90
10051;DHT22;5065;46.942;7.432;2023-09-19T13:24:18;23.30;99.90
10051;DHT22;5065;46.942;7.432;2023-09-19T13:26:45;23.30;99.90
10051;DHT22;5065;46.942;7.432;2023-09-19T13:29:12;23.40;99.90
10051;DHT22;5065;46.942;7.432;2023-09-19T13:31:46;23.30;99.90
10051;DHT22;5065;46.942;7.432;2023-09-19T13:34:13;23.30;99.90
10051;DHT22;5065;46.942;7.432;2023-09-19T13:36:43;23.30;99.90
10051;DHT22;5065;46.942;7.432;2023-09-19T13:39:11;23.20;99.90
10051;DHT22;5065;46.942;7.432;2023-09-19T13:41:40;23.20;99.90
10051;DHT22;5065;46.942;7.432;2023-09-19T13:44:07;23.20;99.90
10051;DHT22;5065;46.942;7.432;2023-09-19T13:46:36;23.00;99.90
10051;DHT22;5065;46.942;7.432;2023-09-19T13:49:03;23.10;99.90
10051;DHT22;5065;46.942;7.432;2023-09-19T13:51:31;23.10;99.90
10051;DHT22;5065;46.942;7.432;2023-09-19T13:54:00;23.10;99.90
10051;DHT22;5065;46.942;7.432;2023-09-19T13:56:27;23.10;99.90
10051;DHT22;5065;46.942;7.432;2023-09-19T13:58:55;23.00;99.90
10051;DHT22;5065;46.942;7.432;2023-09-19T14:01:23;23.00;99.90
10051;DHT22;5065;46.942;7.432;2023-09-19T14:03:51;23.00;99.90
10051;DHT22;5065;46.942;7.432;2023-09-19T14:06:19;22.90;99.90
10051;DHT22;5065;46.942;7.432;2023-09-19T14:08:47;22.90;99.90
10051;DHT22;5065;46.942;7.432;2023-09-19T14:11:17;22.90;99.90
10051;DHT22;5065;46.942;7.432;2023-09-19T14:13:44;22.90;99.90
10051;DHT22;5065;46.942;7.432;2023-09-19T14:16:15;22.90;99.90
10051;DHT22;5065;46.942;7.432;2023-09-19T14:18:44;22.90;99.90
10051;DHT22;5065;46.942;7.432;2023-09-19T14:21:12;22.90;99.90
10051;DHT22;5065;46.942;7.432;2023-09-19T14:23:40;22.80;99.90
10051;DHT22;5065;46.942;7.432;2023-09-19T14:26:09;22.80;99.90
10051;DHT22;5065;46.942;7.432;2023-09-19T14:28:37;22.80;99.90
10051;DHT22;5065;46.942;7.432;2023-09-19T14:31:06;22.80;99.90
10051;DHT22;5065;46.942;7.432;2023-09-19T14:33:33;22.80;99.90
10051;DHT22;5065;46.942;7.432;2023-09-19T14:36:03;22.80;99.90
10051;DHT22;5065;46.942;7.432;2023-09-19T14:38:32;22.80;99.90
10051;DHT22;5065;46.942;7.432;2023-09-19T14:41:01;22.80;99.90
10051;DHT22;5065;46.942;7.432;2023-09-19T14:43:28;22.80;99.90
10051;DHT22;5065;46.942;7.432;2023-09-19T14:45:57;22.80;99.90
10051;DHT22;5065;46.942;7.432;2023-09-19T14:48:24;22.80;99.90
10051;DHT22;5065;46.942;7.432;2023-09-19T14:50:52;22.80;99.90
10051;DHT22;5065;46.942;7.432;2023-09-19T14:53:21;22.80;99.90
10051;DHT22;5065;46.942;7.432;2023-09-19T14:55:48;22.80;99.90
10051;DHT22;5065;46.942;7.432;2023-09-19T14:58:17;22.80;99.90
10051;DHT22;5065;46.942;7.432;2023-09-19T15:01:03;22.70;99.90
10051;DHT22;5065;46.942;7.432;2023-09-19T15:03:31;22.80;99.90
10051;DHT22;5065;46.942;7.432;2023-09-19T15:06:02;22.70;99.90
10051;DHT22;5065;46.942;7.432;2023-09-19T15:08:30;22.70;99.90
10051;DHT22;5065;46.942;7.432;2023-09-19T15:10:57;22.70;99.90
10051;DHT22;5065;46.942;7.432;2023-09-19T15:13:29;22.70;99.90
10051;DHT22;5065;46.942;7.432;2023-09-19T15:15:59;22.70;99.90
10051;DHT22;5065;46.942;7.432;2023-09-19T15:18:28;22.70;99.90
10051;DHT22;5065;46.942;7.432;2023-09-19T15:20:56;22.70;99.90
10051;DHT22;5065;46.942;7.432;2023-09-19T15:23:23;22.70;99.90
10051;DHT22;5065;46.942;7.432;2023-09-19T15:25:50;22.70;99.90
10051;DHT22;5065;46.942;7.432;2023-09-19T15:28:19;22.70;99.90
10051;DHT22;5065;46.942;7.432;2023-09-19T15:30:48;22.70;99.90
10051;DHT22;5065;46.942;7.432;2023-09-19T15:33:15;22.70;99.90
10051;DHT22;5065;46.942;7.432;2023-09-19T15:35:44;22.70;99.90
10051;DHT22;5065;46.942;7.432;2023-09-19T15:38:14;22.60;99.90
10051;DHT22;5065;46.942;7.432;2023-09-19T15:40:46;22.60;99.90
10051;DHT22;5065;46.942;7.432;2023-09-19T15:43:13;22.50;99.90
10051;DHT22;5065;46.942;7.432;2023-09-19T15:45:42;22.60;99.90
10051;DHT22;5065;46.942;7.432;2023-09-19T15:48:09;22.60;99.90
10051;DHT22;5065;46.942;7.432;2023-09-19T15:50:37;22.50;99.90
10051;DHT22;5065;46.942;7.432;2023-09-19T15:53:05;22.60;99.90
10051;DHT22;5065;46.942;7.432;2023-09-19T15:55:38;22.60;99.90
10051;DHT22;5065;46.942;7.432;2023-09-19T15:58:05;22.60;99.90
10051;DHT22;5065;46.942;7.432;2023-09-19T16:00:33;22.60;99.90
10051;DHT22;5065;46.942;7.432;2023-09-19T16:03:02;22.60;99.90
10051;DHT22;5065;46.942;7.432;2023-09-19T16:05:35;22.60;99.90
10051;DHT22;5065;46.942;7.432;2023-09-19T16:08:05;22.50;99.90
10051;DHT22;5065;46.942;7.432;2023-09-19T16:10:34;22.50;99.90
10051;DHT22;5065;46.942;7.432;2023-09-19T16:13:02;22.60;99.90